sensor_id;sensor_type;location;lat;lon;timestamp;temperature;humidity
5901;DHT22;2976;49.764;9.796;2023-03-12T00:02:15;-3.70;99.90
5901;DHT22;2976;49.764;9.796;2023-03-12T00:04:40;-3.60;99.90
5901;DHT22;2976;49.764;9.796;2023-03-12T00:07:06;-3.60;99.90
5901;DHT22;2976;49.764;9.796;2023-03-12T00:09:37;-3.70;99.90
5901;DHT22;2976;49.764;9.796;2023-03-12T00:12:04;-3.70;99.90
5901;DHT22;2976;49.764;9.796;2023-03-12T00:14:30;-3.80;99.90
5901;DHT22;2976;49.764;9.796;2023-03-12T00:16:55;-3.80;99.90
5901;DHT22;2976;49.764;9.796;2023-03-12T00:19:21;-3.80;99.90
5901;DHT22;2976;49.764;9.796;2023-03-12T00:21:47;-3.80;99.90
5901;DHT22;2976;49.764;9.796;2023-03-12T00:24:12;-3.90;99.90
5901;DHT22;2976;49.764;9.796;2023-03-12T00:26:38;-3.90;99.90
5901;DHT22;2976;49.764;9.796;2023-03-12T00:29:04;-3.90;99.90
5901;DHT22;2976;49.764;9.796;2023-03-12T00:31:31;-3.80;99.90
5901;DHT22;2976;49.764;9.796;2023-03-12T00:33:58;-3.90;99.90
5901;DHT22;2976;49.764;9.796;2023-03-12T00:36:27;-3.90;99.90
5901;DHT22;2976;49.764;9.796;2023-03-12T00:38:54;-4.10;99.90
5901;DHT22;2976;49.764;9.796;2023-03-12T00:41:20;-4.20;99.90
5901;DHT22;2976;49.764;9.796;2023-03-12T00:43:47;-4.30;99.90
5901;DHT22;2976;49.764;9.796;2023-03-12T00:46:13;-4.30;99.90
5901;DHT22;2976;49.764;9.796;2023-03-12T00:48:40;-4.40;99.90
5901;DHT22;2976;49.764;9.796;2023-03-12T00:51:06;-4.40;99.90
5901;DHT22;2976;49.764;9.796;2023-03-12T00:53:32;-4.40;99.90
5901;DHT22;2976;49.764;9.796;2023-03-12T00:55:57;-4.30;99.90
5901;DHT22;2976;49.764;9.796;2023-03-12T00:58:23;-4.30;99.90
5901;DHT22;2976;49.764;9.796;2023-03-12T01:00:48;-4.30;99.90
5901;DHT22;2976;49.764;9.796;2023-03-12T01:03:14;-4.20;99.90
5901;DHT22;2976;49.764;9.796;2023-03-12T01:05:40;-4.10;99.90
5901;DHT22;2976;49.764;9.796;2023-03-12T01:08:07;-4.10;99.90
5901;DHT22;2976;49.764;9.796;2023-03-12T01:10:33;-4.00;99.90
5901;DHT22;2976;49.764;9.796;2023-03-12T01:12:59;-4.10;99.90
5901;DHT22;2976;49.764;9.796;2023-03-12T01:15:25;-4.10;99.90
5901;DHT22;2976;49.764;9.796;2023-03-12T01:17:51;-4.20;99.90
5901;DHT22;2976;49.764;9.796;2023-03-12T01:20:16;-4.30;99.90
5901;DHT22;2976;49.764;9.796;2023-03-12T01:22:42;-4.20;99.90
5901;DHT22;2976;49.764;9.796;2023-03-12T01:25:09;-4.20;99.90
5901;DHT22;2976;49.764;9.796;2023-03-12T01:27:35;-4.20;99.90
5901;DHT22;2976;49.764;9.796;2023-03-12T01:30:01;-4.20;99.90
5901;DHT22;2976;49.764;9.796;2023-03-12T01:32:27;-4.20;99.90
5901;DHT22;2976;49.764;9.796;2023-03-12T01:34:52;-4.10;99.90
5901;DHT22;2976;49.764;9.796;2023-03-12T01:37:18;-4.00;99.90
5901;DHT22;2976;49.764;9.796;2023-03-12T01:39:43;-3.90;99.90
5901;DHT22;2976;49.764;9.796;2023-03-12T01:42:09;-3.80;99.90
5901;DHT22;2976;49.764;9.796;2023-03-12T01:44:54;-3.80;99.90
5901;DHT22;2976;49.764;9.796;2023-03-12T01:47:21;-3.80;99.90
5901;DHT22;2976;49.764;9.796;2023-03-12T01:49:47;-3.70;99.90
5901;DHT22;2976;49.764;9.796;2023-03-12T01:52:17;-3.70;99.90
5901;DHT22;2976;49.764;9.796;2023-03-12T01:54:54;-3.60;99.90
5901;DHT22;2976;49.764;9.796;2023-03-12T01:57:27;-3.50;99.90
5901;DHT22;2976;49.764;9.796;2023-03-12T02:00:02;-3.40;99.90
5901;DHT22;2976;49.764;9.796;2023-03-12T02:02:29;-3.30;99.90
5901;DHT22;2976;49.764;9.796;2023-03-12T02:05:16;-3.20;99.90
5901;DHT22;2976;49.764;9.796;2023-03-12T02:07:43;-3.10;99.90
5901;DHT22;2976;49.764;9.796;2023-03-12T02:10:10;-3.10;99.90
5901;DHT22;2976;49.764;9.796;2023-03-12T02:12:36;-3.10;99.90
5901;DHT22;2976;49.764;9.796;2023-03-12T02:15:02;-3.00;99.90
5901;DHT22;2976;49.764;9.796;2023-03-12T02:17:29;-3.10;99.90
5901;DHT22;2976;49.764;9.796;2023-03-12T02:23:31;-3.00;99.90
5901;DHT22;2976;49.764;9.796;2023-03-12T02:25:59;-3.00;99.90
5901;DHT22;2976;49.764;9.796;2023-03-12T02:28:27;-3.00;99.90
5901;DHT22;2976;49.764;9.796;2023-03-12T02:30:57;-3.00;99.90
5901;DHT22;2976;49.764;9.796;2023-03-12T02:33:24;-3.00;99.90
5901;DHT22;2976;49.764;9.796;2023-03-12T02:35:51;-3.00;99.90
5901;DHT22;2976;49.764;9.796;2023-03-12T02:38:41;-3.00;99.90
5901;DHT22;2976;49.764;9.796;2023-03-12T02:41:29;-3.00;99.90
5901;DHT22;2976;49.764;9.796;2023-03-12T02:46:33;-3.10;99.90
5901;DHT22;2976;49.764;9.796;2023-03-12T02:49:00;-3.10;99.90
5901;DHT22;2976;49.764;9.796;2023-03-12T02:51:26;-3.10;99.90
5901;DHT22;2976;49.764;9.796;2023-03-12T02:53:51;-3.10;99.90
5901;DHT22;2976;49.764;9.796;2023-03-12T02:56:23;-3.10;99.90
5901;DHT22;2976;49.764;9.796;2023-03-12T02:58:49;-3.00;99.90
5901;DHT22;2976;49.764;9.796;2023-03-12T03:01:15;-3.00;99.90
5901;DHT22;2976;49.764;9.796;2023-03-12T03:03:41;-3.00;99.90
5901;DHT22;2976;49.764;9.796;2023-03-12T03:06:06;-2.90;99.90
5901;DHT22;2976;49.764;9.796;2023-03-12T03:08:32;-2.90;99.90
5901;DHT22;2976;49.764;9.796;2023-03-12T03:10:57;-2.90;99.90
5901;DHT22;2976;49.764;9.796;2023-03-12T03:13:25;-2.90;99.90
5901;DHT22;2976;49.764;9.796;2023-03-12T03:15:50;-2.80;99.90
5901;DHT22;2976;49.764;9.796;2023-03-12T03:18:16;-2.80;99.90
5901;DHT22;2976;49.764;9.796;2023-03-12T03:20:41;-2.80;99.90
5901;DHT22;2976;49.764;9.796;2023-03-12T03:23:08;-2.80;99.90
5901;DHT22;2976;49.764;9.796;2023-03-12T03:25:35;-2.70;99.90
5901;DHT22;2976;49.764;9.796;2023-03-12T03:28:00;-2.70;99.90
5901;DHT22;2976;49.764;9.796;2023-03-12T03:30:26;-2.60;99.90
5901;DHT22;2976;49.764;9.796;2023-03-12T03:32:52;-2.60;99.90
5901;DHT22;2976;49.764;9.796;2023-03-12T03:35:17;-2.50;99.90
5901;DHT22;2976;49.764;9.796;2023-03-12T03:37:43;-2.60;99.90
5901;DHT22;2976;49.764;9.796;2023-03-12T03:40:09;-2.50;99.90
5901;DHT22;2976;49.764;9.796;2023-03-12T03:42:37;-2.60;99.90
5901;DHT22;2976;49.764;9.796;2023-03-12T03:45:04;-2.60;99.90
5901;DHT22;2976;49.764;9.796;2023-03-12T03:47:30;-2.60;99.90
5901;DHT22;2976;49.764;9.796;2023-03-12T03:49:56;-2.60;99.90
5901;DHT22;2976;49.764;9.796;2023-03-12T03:52:21;-2.60;99.90
5901;DHT22;2976;49.764;9.796;2023-03-12T03:54:47;-2.70;99.90
5901;DHT22;2976;49.764;9.796;2023-03-12T03:57:12;-2.70;99.90
5901;DHT22;2976;49.764;9.796;2023-03-12T03:59:38;-2.80;99.90
5901;DHT22;2976;49.764;9.796;2023-03-12T04:02:03;-2.70;99.90
5901;DHT22;2976;49.764;9.796;2023-03-12T04:04:29;-2.70;99.90
5901;DHT22;2976;49.764;9.796;2023-03-12T04:06:56;-2.70;99.90
5901;DHT22;2976;49.764;9.796;2023-03-12T04:09:21;-2.70;99.90
5901;DHT22;2976;49.764;9.796;2023-03-12T04:11:47;-2.70;99.90
5901;DHT22;2976;49.764;9.796;2023-03-12T04:14:12;-2.60;99.90
5901;DHT22;2976;49.764;9.796;2023-03-12T04:16:38;-2.60;99.90
5901;DHT22;2976;49.764;9.796;2023-03-12T04:19:03;-2.60;99.90
5901;DHT22;2976;49.764;9.796;2023-03-12T04:21:29;-2.50;99.90
5901;DHT22;2976;49.764;9.796;2023-03-12T04:23:55;-2.60;99.90
5901;DHT22;2976;49.764;9.796;2023-03-12T04:26:20;-2.60;99.90
5901;DHT22;2976;49.764;9.796;2023-03-12T04:28:46;-2.60;99.90
5901;DHT22;2976;49.764;9.796;2023-03-12T04:31:11;-2.70;99.90
5901;DHT22;2976;49.764;9.796;2023-03-12T04:33:38;-2.70;99.90
5901;DHT22;2976;49.764;9.796;2023-03-12T04:36:05;-2.70;99.90
5901;DHT22;2976;49.764;9.796;2023-03-12T04:38:31;-2.70;99.90
5901;DHT22;2976;49.764;9.796;2023-03-12T04:41:04;-2.60;99.90
5901;DHT22;2976;49.764;9.796;2023-03-12T04:43:30;-2.60;99.90
5901;DHT22;2976;49.764;9.796;2023-03-12T04:45:57;-2.50;99.90
5901;DHT22;2976;49.764;9.796;2023-03-12T04:48:23;-2.50;99.90
5901;DHT22;2976;49.764;9.796;2023-03-12T04:50:49;-2.50;99.90
5901;DHT22;2976;49.764;9.796;2023-03-12T04:53:14;-2.50;99.90
5901;DHT22;2976;49.764;9.796;2023-03-12T04:55:40;-2.40;99.90
5901;DHT22;2976;49.764;9.796;2023-03-12T04:58:06;-2.40;99.90
5901;DHT22;2976;49.764;9.796;2023-03-12T05:00:31;-2.40;99.90
5901;DHT22;2976;49.764;9.796;2023-03-12T05:02:57;-2.40;99.90
5901;DHT22;2976;49.764;9.796;2023-03-12T05:05:23;-2.40;99.90
5901;DHT22;2976;49.764;9.796;2023-03-12T05:07:48;-2.40;99.90
5901;DHT22;2976;49.764;9.796;2023-03-12T05:10:14;-2.40;99.90
5901;DHT22;2976;49.764;9.796;2023-03-12T05:12:39;-2.30;99.90
5901;DHT22;2976;49.764;9.796;2023-03-12T05:15:05;-2.20;99.90
5901;DHT22;2976;49.764;9.796;2023-03-12T05:17:31;-2.10;99.90
5901;DHT22;2976;49.764;9.796;2023-03-12T05:19:56;-2.00;99.90
5901;DHT22;2976;49.764;9.796;2023-03-12T05:22:22;-2.00;99.90
5901;DHT22;2976;49.764;9.796;2023-03-12T05:24:47;-1.90;99.90
5901;DHT22;2976;49.764;9.796;2023-03-12T05:27:13;-1.90;99.90
5901;DHT22;2976;49.764;9.796;2023-03-12T05:29:39;-1.80;99.90
5901;DHT22;2976;49.764;9.796;2023-03-12T05:32:04;-1.90;99.90
5901;DHT22;2976;49.764;9.796;2023-03-12T05:34:32;-2.00;99.90
5901;DHT22;2976;49.764;9.796;2023-03-12T05:36:57;-2.10;99.90
5901;DHT22;2976;49.764;9.796;2023-03-12T05:39:23;-2.20;99.90
5901;DHT22;2976;49.764;9.796;2023-03-12T05:41:49;-2.20;99.90
5901;DHT22;2976;49.764;9.796;2023-03-12T05:44:15;-2.20;99.90
5901;DHT22;2976;49.764;9.796;2023-03-12T05:46:42;-2.30;99.90
5901;DHT22;2976;49.764;9.796;2023-03-12T05:49:08;-2.30;99.90
5901;DHT22;2976;49.764;9.796;2023-03-12T05:51:34;-2.30;99.90
5901;DHT22;2976;49.764;9.796;2023-03-12T05:54:00;-2.30;99.90
5901;DHT22;2976;49.764;9.796;2023-03-12T05:56:26;-2.30;99.90
5901;DHT22;2976;49.764;9.796;2023-03-12T05:58:52;-2.20;99.90
5901;DHT22;2976;49.764;9.796;2023-03-12T06:01:21;-2.10;99.90
5901;DHT22;2976;49.764;9.796;2023-03-12T06:03:47;-2.10;99.90
5901;DHT22;2976;49.764;9.796;2023-03-12T06:06:13;-2.10;99.90
5901;DHT22;2976;49.764;9.796;2023-03-12T06:08:39;-2.10;99.90
5901;DHT22;2976;49.764;9.796;2023-03-12T06:11:04;-2.00;99.90
5901;DHT22;2976;49.764;9.796;2023-03-12T06:13:30;-2.00;99.90
5901;DHT22;2976;49.764;9.796;2023-03-12T06:16:14;-1.90;99.90
5901;DHT22;2976;49.764;9.796;2023-03-12T06:18:40;-1.80;99.90
5901;DHT22;2976;49.764;9.796;2023-03-12T06:21:16;-1.70;99.90
5901;DHT22;2976;49.764;9.796;2023-03-12T06:23:42;-1.50;99.90
5901;DHT22;2976;49.764;9.796;2023-03-12T06:26:09;-1.30;99.90
5901;DHT22;2976;49.764;9.796;2023-03-12T06:28:35;-1.20;99.90
5901;DHT22;2976;49.764;9.796;2023-03-12T06:31:01;-1.10;99.90
5901;DHT22;2976;49.764;9.796;2023-03-12T06:33:27;-1.00;99.90
5901;DHT22;2976;49.764;9.796;2023-03-12T06:35:54;-0.90;99.90
5901;DHT22;2976;49.764;9.796;2023-03-12T06:38:20;-0.90;99.90
5901;DHT22;2976;49.764;9.796;2023-03-12T06:40:57;-0.80;99.90
5901;DHT22;2976;49.764;9.796;2023-03-12T06:43:24;-0.70;99.90
5901;DHT22;2976;49.764;9.796;2023-03-12T06:45:50;-0.60;99.90
5901;DHT22;2976;49.764;9.796;2023-03-12T06:48:16;-0.50;99.90
5901;DHT22;2976;49.764;9.796;2023-03-12T06:50:42;-0.40;99.90
5901;DHT22;2976;49.764;9.796;2023-03-12T06:53:07;-0.30;99.90
5901;DHT22;2976;49.764;9.796;2023-03-12T06:55:33;-0.30;99.90
5901;DHT22;2976;49.764;9.796;2023-03-12T06:57:59;-0.20;99.90
5901;DHT22;2976;49.764;9.796;2023-03-12T07:00:24;-0.30;99.90
5901;DHT22;2976;49.764;9.796;2023-03-12T07:02:50;-0.30;99.90
5901;DHT22;2976;49.764;9.796;2023-03-12T07:05:15;-0.20;99.90
5901;DHT22;2976;49.764;9.796;2023-03-12T07:07:41;-0.20;99.90
5901;DHT22;2976;49.764;9.796;2023-03-12T07:10:07;-0.20;99.90
5901;DHT22;2976;49.764;9.796;2023-03-12T07:12:34;-0.10;99.90
5901;DHT22;2976;49.764;9.796;2023-03-12T07:14:59;0.10;99.90
5901;DHT22;2976;49.764;9.796;2023-03-12T07:17:25;0.30;99.90
5901;DHT22;2976;49.764;9.796;2023-03-12T07:19:51;0.50;99.90
5901;DHT22;2976;49.764;9.796;2023-03-12T07:22:17;0.70;99.90
5901;DHT22;2976;49.764;9.796;2023-03-12T07:24:42;0.70;99.90
5901;DHT22;2976;49.764;9.796;2023-03-12T07:27:08;0.70;99.90
5901;DHT22;2976;49.764;9.796;2023-03-12T07:29:34;0.80;99.90
5901;DHT22;2976;49.764;9.796;2023-03-12T07:31:59;0.90;99.90
5901;DHT22;2976;49.764;9.796;2023-03-12T07:34:25;1.20;99.90
5901;DHT22;2976;49.764;9.796;2023-03-12T07:36:50;1.40;99.90
5901;DHT22;2976;49.764;9.796;2023-03-12T07:39:16;1.60;99.90
5901;DHT22;2976;49.764;9.796;2023-03-12T07:41:42;1.70;99.90
5901;DHT22;2976;49.764;9.796;2023-03-12T07:44:07;1.80;99.90
5901;DHT22;2976;49.764;9.796;2023-03-12T07:46:34;1.80;99.90
5901;DHT22;2976;49.764;9.796;2023-03-12T07:48:59;1.90;99.90
5901;DHT22;2976;49.764;9.796;2023-03-12T07:51:25;1.80;99.90
5901;DHT22;2976;49.764;9.796;2023-03-12T07:53:51;1.70;99.90
5901;DHT22;2976;49.764;9.796;2023-03-12T07:56:16;1.50;99.90
5901;DHT22;2976;49.764;9.796;2023-03-12T07:58:42;1.10;99.90
5901;DHT22;2976;49.764;9.796;2023-03-12T08:01:07;0.90;99.90
5901;DHT22;2976;49.764;9.796;2023-03-12T08:03:33;0.90;99.90
5901;DHT22;2976;49.764;9.796;2023-03-12T08:06:00;0.90;99.90
5901;DHT22;2976;49.764;9.796;2023-03-12T08:08:27;1.10;99.90
5901;DHT22;2976;49.764;9.796;2023-03-12T08:10:53;1.20;99.90
5901;DHT22;2976;49.764;9.796;2023-03-12T08:13:19;1.30;99.90
5901;DHT22;2976;49.764;9.796;2023-03-12T08:15:44;1.40;99.90
5901;DHT22;2976;49.764;9.796;2023-03-12T08:18:10;1.60;99.90
5901;DHT22;2976;49.764;9.796;2023-03-12T08:20:35;1.70;99.90
5901;DHT22;2976;49.764;9.796;2023-03-12T08:23:01;1.90;99.90
5901;DHT22;2976;49.764;9.796;2023-03-12T08:25:27;2.00;99.90
5901;DHT22;2976;49.764;9.796;2023-03-12T08:27:53;2.20;99.90
5901;DHT22;2976;49.764;9.796;2023-03-12T08:30:19;2.20;99.90
5901;DHT22;2976;49.764;9.796;2023-03-12T08:32:45;2.40;99.90
5901;DHT22;2976;49.764;9.796;2023-03-12T08:35:10;2.50;99.90
5901;DHT22;2976;49.764;9.796;2023-03-12T08:37:36;2.70;99.90
5901;DHT22;2976;49.764;9.796;2023-03-12T08:40:02;2.90;99.90
5901;DHT22;2976;49.764;9.796;2023-03-12T08:42:38;3.20;99.90
5901;DHT22;2976;49.764;9.796;2023-03-12T08:45:03;3.40;99.90
5901;DHT22;2976;49.764;9.796;2023-03-12T08:47:29;3.60;99.90
5901;DHT22;2976;49.764;9.796;2023-03-12T08:49:54;3.60;99.90
5901;DHT22;2976;49.764;9.796;2023-03-12T08:52:20;3.60;99.90
5901;DHT22;2976;49.764;9.796;2023-03-12T08:54:45;3.70;99.90
5901;DHT22;2976;49.764;9.796;2023-03-12T08:57:11;3.70;99.90
5901;DHT22;2976;49.764;9.796;2023-03-12T08:59:37;3.70;99.90
5901;DHT22;2976;49.764;9.796;2023-03-12T09:02:02;3.50;99.90
5901;DHT22;2976;49.764;9.796;2023-03-12T09:04:29;3.20;99.90
5901;DHT22;2976;49.764;9.796;2023-03-12T09:06:54;3.10;99.90
5901;DHT22;2976;49.764;9.796;2023-03-12T09:09:20;3.20;99.90
5901;DHT22;2976;49.764;9.796;2023-03-12T09:11:46;3.20;99.90
5901;DHT22;2976;49.764;9.796;2023-03-12T09:14:11;3.40;99.90
5901;DHT22;2976;49.764;9.796;2023-03-12T09:16:37;3.60;99.90
5901;DHT22;2976;49.764;9.796;2023-03-12T09:19:03;3.70;99.90
5901;DHT22;2976;49.764;9.796;2023-03-12T09:21:28;3.80;99.90
5901;DHT22;2976;49.764;9.796;2023-03-12T09:23:54;3.90;99.90
5901;DHT22;2976;49.764;9.796;2023-03-12T09:26:20;3.80;99.90
5901;DHT22;2976;49.764;9.796;2023-03-12T09:28:46;3.80;99.90
5901;DHT22;2976;49.764;9.796;2023-03-12T09:31:12;3.70;99.90
5901;DHT22;2976;49.764;9.796;2023-03-12T09:33:37;3.60;99.90
5901;DHT22;2976;49.764;9.796;2023-03-12T09:36:03;3.60;99.90
5901;DHT22;2976;49.764;9.796;2023-03-12T09:38:29;3.60;99.90
5901;DHT22;2976;49.764;9.796;2023-03-12T09:41:00;3.50;99.90
5901;DHT22;2976;49.764;9.796;2023-03-12T09:43:46;3.50;99.90
5901;DHT22;2976;49.764;9.796;2023-03-12T09:46:22;3.40;99.90
5901;DHT22;2976;49.764;9.796;2023-03-12T09:48:52;3.40;99.90
5901;DHT22;2976;49.764;9.796;2023-03-12T09:54:00;3.30;99.90
5901;DHT22;2976;49.764;9.796;2023-03-12T09:56:27;3.30;99.90
5901;DHT22;2976;49.764;9.796;2023-03-12T09:58:54;3.30;99.90
5901;DHT22;2976;49.764;9.796;2023-03-12T10:04:43;3.10;99.90
5901;DHT22;2976;49.764;9.796;2023-03-12T10:07:38;3.10;99.90
5901;DHT22;2976;49.764;9.796;2023-03-12T10:13:02;3.30;99.90
5901;DHT22;2976;49.764;9.796;2023-03-12T10:15:56;3.40;99.90
5901;DHT22;2976;49.764;9.796;2023-03-12T10:24:12;3.70;99.90
5901;DHT22;2976;49.764;9.796;2023-03-12T10:26:46;3.70;99.90
5901;DHT22;2976;49.764;9.796;2023-03-12T10:32:15;3.70;99.90
5901;DHT22;2976;49.764;9.796;2023-03-12T10:37:32;3.60;99.90
5901;DHT22;2976;49.764;9.796;2023-03-12T10:39:58;3.70;99.90
5901;DHT22;2976;49.764;9.796;2023-03-12T10:42:28;3.60;99.90
5901;DHT22;2976;49.764;9.796;2023-03-12T10:45:02;3.70;99.90
5901;DHT22;2976;49.764;9.796;2023-03-12T10:47:40;3.80;99.90
5901;DHT22;2976;49.764;9.796;2023-03-12T10:50:21;3.80;99.90
5901;DHT22;2976;49.764;9.796;2023-03-12T10:52:49;3.90;99.90
5901;DHT22;2976;49.764;9.796;2023-03-12T10:55:26;4.00;99.90
5901;DHT22;2976;49.764;9.796;2023-03-12T10:57:54;4.10;99.90
5901;DHT22;2976;49.764;9.796;2023-03-12T11:00:28;4.10;99.90
5901;DHT22;2976;49.764;9.796;2023-03-12T11:03:18;4.10;99.90
5901;DHT22;2976;49.764;9.796;2023-03-12T11:05:46;4.10;99.90
5901;DHT22;2976;49.764;9.796;2023-03-12T11:08:30;4.10;99.90
5901;DHT22;2976;49.764;9.796;2023-03-12T11:10:58;4.20;99.90
5901;DHT22;2976;49.764;9.796;2023-03-12T11:15:54;4.20;99.90
5901;DHT22;2976;49.764;9.796;2023-03-12T11:21:11;4.10;99.90
5901;DHT22;2976;49.764;9.796;2023-03-12T11:23:40;4.10;99.90
5901;DHT22;2976;49.764;9.796;2023-03-12T11:28:39;4.20;99.90
5901;DHT22;2976;49.764;9.796;2023-03-12T11:31:12;4.10;99.90
5901;DHT22;2976;49.764;9.796;2023-03-12T11:33:40;4.20;99.90
5901;DHT22;2976;49.764;9.796;2023-03-12T11:36:21;4.30;99.90
5901;DHT22;2976;49.764;9.796;2023-03-12T11:39:13;4.30;99.90
5901;DHT22;2976;49.764;9.796;2023-03-12T11:45:25;4.50;99.90
5901;DHT22;2976;49.764;9.796;2023-03-12T11:53:38;5.00;99.90
5901;DHT22;2976;49.764;9.796;2023-03-12T12:04:28;5.60;99.90
5901;DHT22;2976;49.764;9.796;2023-03-12T12:12:49;5.40;99.90
5901;DHT22;2976;49.764;9.796;2023-03-12T12:15:46;5.30;99.90
5901;DHT22;2976;49.764;9.796;2023-03-12T12:18:42;5.20;99.90
5901;DHT22;2976;49.764;9.796;2023-03-12T12:21:34;5.40;99.90
5901;DHT22;2976;49.764;9.796;2023-03-12T12:35:06;6.10;99.90
5901;DHT22;2976;49.764;9.796;2023-03-12T12:38:08;6.40;99.90
5901;DHT22;2976;49.764;9.796;2023-03-12T12:40:39;6.50;99.90
5901;DHT22;2976;49.764;9.796;2023-03-12T12:43:20;6.60;99.90
5901;DHT22;2976;49.764;9.796;2023-03-12T12:45:49;6.60;99.90
5901;DHT22;2976;49.764;9.796;2023-03-12T12:48:23;6.50;99.90
5901;DHT22;2976;49.764;9.796;2023-03-12T12:50:51;6.60;99.90
5901;DHT22;2976;49.764;9.796;2023-03-12T12:53:50;6.60;99.90
5901;DHT22;2976;49.764;9.796;2023-03-12T12:56:38;6.80;99.90
5901;DHT22;2976;49.764;9.796;2023-03-12T12:59:26;6.90;99.90
5901;DHT22;2976;49.764;9.796;2023-03-12T13:01:58;6.90;99.90
5901;DHT22;2976;49.764;9.796;2023-03-12T13:04:36;6.90;99.90
5901;DHT22;2976;49.764;9.796;2023-03-12T13:09:44;6.90;99.90
5901;DHT22;2976;49.764;9.796;2023-03-12T13:12:12;6.90;99.90
5901;DHT22;2976;49.764;9.796;2023-03-12T13:14:40;6.90;99.90
5901;DHT22;2976;49.764;9.796;2023-03-12T13:17:29;7.10;99.90
5901;DHT22;2976;49.764;9.796;2023-03-12T13:20:06;7.30;99.90
5901;DHT22;2976;49.764;9.796;2023-03-12T13:22:42;7.50;99.90
5901;DHT22;2976;49.764;9.796;2023-03-12T13:27:45;8.10;99.90
5901;DHT22;2976;49.764;9.796;2023-03-12T13:35:29;8.50;99.90
5901;DHT22;2976;49.764;9.796;2023-03-12T13:43:29;8.80;99.90
5901;DHT22;2976;49.764;9.796;2023-03-12T13:46:00;8.80;99.90
5901;DHT22;2976;49.764;9.796;2023-03-12T13:48:29;8.80;99.90
5901;DHT22;2976;49.764;9.796;2023-03-12T13:51:19;9.00;99.90
5901;DHT22;2976;49.764;9.796;2023-03-12T13:54:03;9.10;99.90
5901;DHT22;2976;49.764;9.796;2023-03-12T13:56:30;9.10;99.90
5901;DHT22;2976;49.764;9.796;2023-03-12T13:59:03;9.00;99.90
5901;DHT22;2976;49.764;9.796;2023-03-12T14:01:35;9.00;99.90
5901;DHT22;2976;49.764;9.796;2023-03-12T14:04:06;8.90;99.90
5901;DHT22;2976;49.764;9.796;2023-03-12T14:07:00;8.80;99.90
5901;DHT22;2976;49.764;9.796;2023-03-12T14:17:38;8.70;99.90
5901;DHT22;2976;49.764;9.796;2023-03-12T14:20:15;8.60;99.90
5901;DHT22;2976;49.764;9.796;2023-03-12T14:22:44;8.50;99.90
5901;DHT22;2976;49.764;9.796;2023-03-12T14:25:16;8.60;99.90
5901;DHT22;2976;49.764;9.796;2023-03-12T14:27:46;8.50;99.90
5901;DHT22;2976;49.764;9.796;2023-03-12T14:30:22;8.50;99.90
5901;DHT22;2976;49.764;9.796;2023-03-12T14:32:52;8.70;99.90
5901;DHT22;2976;49.764;9.796;2023-03-12T14:35:24;8.80;99.90
5901;DHT22;2976;49.764;9.796;2023-03-12T14:38:03;8.90;99.90
5901;DHT22;2976;49.764;9.796;2023-03-12T14:43:24;9.10;99.90
5901;DHT22;2976;49.764;9.796;2023-03-12T14:45:53;9.00;99.90
5901;DHT22;2976;49.764;9.796;2023-03-12T14:48:26;9.00;99.90
5901;DHT22;2976;49.764;9.796;2023-03-12T14:50:54;9.10;99.90
5901;DHT22;2976;49.764;9.796;2023-03-12T14:53:32;9.20;99.90
5901;DHT22;2976;49.764;9.796;2023-03-12T14:58:50;9.40;99.90
5901;DHT22;2976;49.764;9.796;2023-03-12T15:01:23;9.40;99.90
5901;DHT22;2976;49.764;9.796;2023-03-12T15:03:53;9.30;99.90
5901;DHT22;2976;49.764;9.796;2023-03-12T15:06:29;9.40;99.90
5901;DHT22;2976;49.764;9.796;2023-03-12T15:08:56;9.40;99.90
5901;DHT22;2976;49.764;9.796;2023-03-12T15:11:26;9.40;99.90
5901;DHT22;2976;49.764;9.796;2023-03-12T15:13:54;9.50;99.90
5901;DHT22;2976;49.764;9.796;2023-03-12T15:16:20;9.50;99.90
5901;DHT22;2976;49.764;9.796;2023-03-12T15:18:46;9.60;99.90
5901;DHT22;2976;49.764;9.796;2023-03-12T15:21:14;9.60;99.90
5901;DHT22;2976;49.764;9.796;2023-03-12T15:23:42;9.70;99.90
5901;DHT22;2976;49.764;9.796;2023-03-12T15:28:39;9.60;99.90
5901;DHT22;2976;49.764;9.796;2023-03-12T15:31:09;9.70;99.90
5901;DHT22;2976;49.764;9.796;2023-03-12T15:33:37;9.60;99.90
5901;DHT22;2976;49.764;9.796;2023-03-12T15:38:53;9.70;99.90
5901;DHT22;2976;49.764;9.796;2023-03-12T15:41:53;9.60;99.90
5901;DHT22;2976;49.764;9.796;2023-03-12T15:44:26;9.50;99.90
5901;DHT22;2976;49.764;9.796;2023-03-12T15:47:13;9.50;99.90
5901;DHT22;2976;49.764;9.796;2023-03-12T15:49:40;9.50;99.90
5901;DHT22;2976;49.764;9.796;2023-03-12T15:57:47;9.30;99.90
5901;DHT22;2976;49.764;9.796;2023-03-12T16:00:17;9.20;99.90
5901;DHT22;2976;49.764;9.796;2023-03-12T16:02:56;9.00;99.90
5901;DHT22;2976;49.764;9.796;2023-03-12T16:05:32;9.00;99.90
5901;DHT22;2976;49.764;9.796;2023-03-12T16:08:12;8.90;99.90
5901;DHT22;2976;49.764;9.796;2023-03-12T16:10:38;8.90;99.90
5901;DHT22;2976;49.764;9.796;2023-03-12T16:13:04;8.90;99.90
5901;DHT22;2976;49.764;9.796;2023-03-12T16:15:36;8.90;99.90
5901;DHT22;2976;49.764;9.796;2023-03-12T16:18:03;8.80;99.90
5901;DHT22;2976;49.764;9.796;2023-03-12T16:20:28;8.80;99.90
5901;DHT22;2976;49.764;9.796;2023-03-12T16:22:54;8.80;99.90
5901;DHT22;2976;49.764;9.796;2023-03-12T16:25:20;8.80;99.90
5901;DHT22;2976;49.764;9.796;2023-03-12T16:27:55;8.70;99.90
5901;DHT22;2976;49.764;9.796;2023-03-12T16:30:29;8.60;99.90
5901;DHT22;2976;49.764;9.796;2023-03-12T16:32:56;8.70;99.90
5901;DHT22;2976;49.764;9.796;2023-03-12T16:35:22;8.70;99.90
5901;DHT22;2976;49.764;9.796;2023-03-12T16:37:48;8.50;99.90
5901;DHT22;2976;49.764;9.796;2023-03-12T16:40:15;8.50;99.90
5901;DHT22;2976;49.764;9.796;2023-03-12T16:42:43;8.40;99.90
5901;DHT22;2976;49.764;9.796;2023-03-12T16:45:11;8.40;99.90
5901;DHT22;2976;49.764;9.796;2023-03-12T16:47:39;8.40;99.90
5901;DHT22;2976;49.764;9.796;2023-03-12T16:50:19;8.40;99.90
5901;DHT22;2976;49.764;9.796;2023-03-12T16:52:46;8.30;99.90
5901;DHT22;2976;49.764;9.796;2023-03-12T16:55:14;8.30;99.90
5901;DHT22;2976;49.764;9.796;2023-03-12T16:57:48;8.20;99.90
5901;DHT22;2976;49.764;9.796;2023-03-12T17:00:19;8.30;99.90
5901;DHT22;2976;49.764;9.796;2023-03-12T17:02:46;8.30;99.90
5901;DHT22;2976;49.764;9.796;2023-03-12T17:05:12;8.30;99.90
5901;DHT22;2976;49.764;9.796;2023-03-12T17:07:38;8.30;99.90
5901;DHT22;2976;49.764;9.796;2023-03-12T17:10:04;8.30;99.90
5901;DHT22;2976;49.764;9.796;2023-03-12T17:12:33;8.30;99.90
5901;DHT22;2976;49.764;9.796;2023-03-12T17:15:01;8.20;99.90
5901;DHT22;2976;49.764;9.796;2023-03-12T17:17:27;8.20;99.90
5901;DHT22;2976;49.764;9.796;2023-03-12T17:19:52;8.30;99.90
5901;DHT22;2976;49.764;9.796;2023-03-12T17:22:19;8.30;99.90
5901;DHT22;2976;49.764;9.796;2023-03-12T17:24:44;8.30;99.90
5901;DHT22;2976;49.764;9.796;2023-03-12T17:27:14;8.40;99.90
5901;DHT22;2976;49.764;9.796;2023-03-12T17:29:39;8.40;99.90
5901;DHT22;2976;49.764;9.796;2023-03-12T17:32:05;8.40;99.90
5901;DHT22;2976;49.764;9.796;2023-03-12T17:34:31;8.40;99.90
5901;DHT22;2976;49.764;9.796;2023-03-12T17:36:57;8.50;99.90
5901;DHT22;2976;49.764;9.796;2023-03-12T17:39:24;8.50;99.90
5901;DHT22;2976;49.764;9.796;2023-03-12T17:41:49;8.50;99.90
5901;DHT22;2976;49.764;9.796;2023-03-12T17:44:15;8.50;99.90
5901;DHT22;2976;49.764;9.796;2023-03-12T17:46:41;8.60;99.90
5901;DHT22;2976;49.764;9.796;2023-03-12T17:49:07;8.60;99.90
5901;DHT22;2976;49.764;9.796;2023-03-12T17:51:33;8.60;99.90
5901;DHT22;2976;49.764;9.796;2023-03-12T17:53:58;8.70;99.90
5901;DHT22;2976;49.764;9.796;2023-03-12T17:56:24;8.70;99.90
5901;DHT22;2976;49.764;9.796;2023-03-12T17:58:50;8.80;99.90
5901;DHT22;2976;49.764;9.796;2023-03-12T18:01:16;8.80;99.90
5901;DHT22;2976;49.764;9.796;2023-03-12T18:03:42;8.80;99.90
5901;DHT22;2976;49.764;9.796;2023-03-12T18:06:08;8.80;99.90
5901;DHT22;2976;49.764;9.796;2023-03-12T18:08:34;8.80;99.90
5901;DHT22;2976;49.764;9.796;2023-03-12T18:11:00;8.80;99.90